sensor_id;sensor_type;location;lat;lon;timestamp;P1;durP1;ratioP1;P2;durP2;ratioP2
40290;SDS011;26000;48.304;13.626;2022-10-16T00:01:20;14.63;;;12.80;;
40290;SDS011;26000;48.304;13.626;2022-10-16T00:03:47;14.38;;;12.70;;
40290;SDS011;26000;48.304;13.626;2022-10-16T00:06:14;17.48;;;13.45;;
40290;SDS011;26000;48.304;13.626;2022-10-16T00:08:41;13.00;;;11.48;;
40290;SDS011;26000;48.304;13.626;2022-10-16T00:11:17;14.60;;;12.52;;
40290;SDS011;26000;48.304;13.626;2022-10-16T00:13:45;13.20;;;11.80;;
40290;SDS011;26000;48.304;13.626;2022-10-16T00:16:13;16.63;;;12.00;;
40290;SDS011;26000;48.304;13.626;2022-10-16T00:18:39;15.60;;;12.57;;
40290;SDS011;26000;48.304;13.626;2022-10-16T00:21:06;16.00;;;13.25;;
40290;SDS011;26000;48.304;13.626;2022-10-16T00:23:34;15.80;;;13.23;;
40290;SDS011;26000;48.304;13.626;2022-10-16T00:26:01;15.50;;;12.80;;
40290;SDS011;26000;48.304;13.626;2022-10-16T00:28:28;15.77;;;13.50;;
40290;SDS011;26000;48.304;13.626;2022-10-16T00:30:54;14.55;;;12.40;;
40290;SDS011;26000;48.304;13.626;2022-10-16T00:33:20;14.95;;;12.63;;
40290;SDS011;26000;48.304;13.626;2022-10-16T00:35:46;16.13;;;13.07;;
40290;SDS011;26000;48.304;13.626;2022-10-16T00:38:12;14.73;;;12.88;;
40290;SDS011;26000;48.304;13.626;2022-10-16T00:40:37;17.48;;;14.02;;
40290;SDS011;26000;48.304;13.626;2022-10-16T00:43:07;16.63;;;14.10;;
40290;SDS011;26000;48.304;13.626;2022-10-16T00:45:37;15.82;;;13.20;;
40290;SDS011;26000;48.304;13.626;2022-10-16T00:48:02;17.30;;;13.57;;
40290;SDS011;26000;48.304;13.626;2022-10-16T00:50:30;18.92;;;13.82;;
40290;SDS011;26000;48.304;13.626;2022-10-16T00:52:58;15.85;;;13.13;;
40290;SDS011;26000;48.304;13.626;2022-10-16T00:55:26;17.48;;;14.70;;
40290;SDS011;26000;48.304;13.626;2022-10-16T00:57:55;18.27;;;14.35;;
40290;SDS011;26000;48.304;13.626;2022-10-16T01:00:23;17.98;;;14.57;;
40290;SDS011;26000;48.304;13.626;2022-10-16T01:02:54;16.58;;;14.07;;
40290;SDS011;26000;48.304;13.626;2022-10-16T01:05:22;21.40;;;14.95;;
40290;SDS011;26000;48.304;13.626;2022-10-16T01:07:56;17.00;;;13.70;;
40290;SDS011;26000;48.304;13.626;2022-10-16T01:10:35;17.90;;;13.80;;
40290;SDS011;26000;48.304;13.626;2022-10-16T01:13:07;17.98;;;13.75;;
40290;SDS011;26000;48.304;13.626;2022-10-16T01:15:51;18.65;;;14.55;;
40290;SDS011;26000;48.304;13.626;2022-10-16T01:18:34;17.48;;;14.13;;
40290;SDS011;26000;48.304;13.626;2022-10-16T01:23:51;21.92;;;13.85;;
40290;SDS011;26000;48.304;13.626;2022-10-16T01:32:05;15.95;;;13.10;;
40290;SDS011;26000;48.304;13.626;2022-10-16T01:34:48;17.65;;;13.35;;
40290;SDS011;26000;48.304;13.626;2022-10-16T01:37:29;16.80;;;13.30;;
40290;SDS011;26000;48.304;13.626;2022-10-16T01:40:07;15.35;;;12.40;;
40290;SDS011;26000;48.304;13.626;2022-10-16T01:42:37;15.10;;;13.00;;
40290;SDS011;26000;48.304;13.626;2022-10-16T01:45:11;14.55;;;12.48;;
40290;SDS011;26000;48.304;13.626;2022-10-16T01:47:39;16.70;;;13.95;;
40290;SDS011;26000;48.304;13.626;2022-10-16T01:50:06;15.75;;;13.05;;
40290;SDS011;26000;48.304;13.626;2022-10-16T01:52:34;14.57;;;13.00;;
40290;SDS011;26000;48.304;13.626;2022-10-16T01:55:02;15.52;;;12.02;;
40290;SDS011;26000;48.304;13.626;2022-10-16T01:57:31;13.38;;;11.98;;
40290;SDS011;26000;48.304;13.626;2022-10-16T02:00:00;14.05;;;11.10;;
40290;SDS011;26000;48.304;13.626;2022-10-16T02:02:28;19.45;;;11.75;;
40290;SDS011;26000;48.304;13.626;2022-10-16T02:05:10;31.70;;;11.10;;
40290;SDS011;26000;48.304;13.626;2022-10-16T02:07:40;14.35;;;11.15;;
40290;SDS011;26000;48.304;13.626;2022-10-16T02:10:07;12.05;;;10.77;;
40290;SDS011;26000;48.304;13.626;2022-10-16T02:12:33;12.40;;;10.40;;
40290;SDS011;26000;48.304;13.626;2022-10-16T02:15:04;18.23;;;11.48;;
40290;SDS011;26000;48.304;13.626;2022-10-16T02:17:30;11.80;;;10.50;;
40290;SDS011;26000;48.304;13.626;2022-10-16T02:19:56;11.30;;;10.10;;
40290;SDS011;26000;48.304;13.626;2022-10-16T02:27:27;10.60;;;8.82;;
40290;SDS011;26000;48.304;13.626;2022-10-16T02:30:25;10.07;;;9.02;;
40290;SDS011;26000;48.304;13.626;2022-10-16T02:32:56;18.17;;;9.45;;
40290;SDS011;26000;48.304;13.626;2022-10-16T02:35:25;10.77;;;9.68;;
40290;SDS011;26000;48.304;13.626;2022-10-16T02:37:52;9.70;;;8.80;;
40290;SDS011;26000;48.304;13.626;2022-10-16T02:40:19;14.30;;;9.02;;
40290;SDS011;26000;48.304;13.626;2022-10-16T02:42:49;9.98;;;8.98;;
40290;SDS011;26000;48.304;13.626;2022-10-16T02:45:19;9.57;;;8.57;;
40290;SDS011;26000;48.304;13.626;2022-10-16T02:47:45;13.90;;;9.43;;
40290;SDS011;26000;48.304;13.626;2022-10-16T02:50:11;11.75;;;9.20;;
40290;SDS011;26000;48.304;13.626;2022-10-16T02:52:36;9.32;;;8.43;;
40290;SDS011;26000;48.304;13.626;2022-10-16T02:55:02;14.85;;;9.60;;
40290;SDS011;26000;48.304;13.626;2022-10-16T02:57:28;12.00;;;9.07;;
40290;SDS011;26000;48.304;13.626;2022-10-16T02:59:53;10.20;;;8.95;;
40290;SDS011;26000;48.304;13.626;2022-10-16T03:02:19;10.57;;;9.23;;
40290;SDS011;26000;48.304;13.626;2022-10-16T03:04:45;9.55;;;8.57;;
40290;SDS011;26000;48.304;13.626;2022-10-16T03:07:10;10.50;;;9.50;;
40290;SDS011;26000;48.304;13.626;2022-10-16T03:09:36;10.70;;;9.50;;
40290;SDS011;26000;48.304;13.626;2022-10-16T03:12:01;10.05;;;9.05;;
40290;SDS011;26000;48.304;13.626;2022-10-16T03:14:27;11.90;;;9.70;;
40290;SDS011;26000;48.304;13.626;2022-10-16T03:16:53;11.25;;;10.10;;
40290;SDS011;26000;48.304;13.626;2022-10-16T03:19:18;10.55;;;9.45;;
40290;SDS011;26000;48.304;13.626;2022-10-16T03:21:44;11.73;;;9.23;;
40290;SDS011;26000;48.304;13.626;2022-10-16T03:24:10;10.93;;;9.82;;
40290;SDS011;26000;48.304;13.626;2022-10-16T03:26:36;10.48;;;9.40;;
40290;SDS011;26000;48.304;13.626;2022-10-16T03:29:01;13.20;;;9.07;;
40290;SDS011;26000;48.304;13.626;2022-10-16T03:31:28;10.45;;;9.35;;
40290;SDS011;26000;48.304;13.626;2022-10-16T03:33:54;10.63;;;9.30;;
40290;SDS011;26000;48.304;13.626;2022-10-16T03:36:20;10.25;;;9.07;;
40290;SDS011;26000;48.304;13.626;2022-10-16T03:38:46;10.30;;;9.15;;
40290;SDS011;26000;48.304;13.626;2022-10-16T03:41:11;10.13;;;9.13;;
40290;SDS011;26000;48.304;13.626;2022-10-16T03:43:37;11.57;;;9.45;;
40290;SDS011;26000;48.304;13.626;2022-10-16T03:46:03;11.48;;;9.90;;
40290;SDS011;26000;48.304;13.626;2022-10-16T03:48:28;11.10;;;9.75;;
40290;SDS011;26000;48.304;13.626;2022-10-16T03:50:54;13.25;;;10.45;;
40290;SDS011;26000;48.304;13.626;2022-10-16T03:53:20;11.65;;;10.02;;
40290;SDS011;26000;48.304;13.626;2022-10-16T03:55:46;12.32;;;10.23;;
40290;SDS011;26000;48.304;13.626;2022-10-16T03:58:11;16.17;;;11.40;;
40290;SDS011;26000;48.304;13.626;2022-10-16T04:00:43;14.50;;;10.80;;
40290;SDS011;26000;48.304;13.626;2022-10-16T04:03:10;12.63;;;11.23;;
40290;SDS011;26000;48.304;13.626;2022-10-16T04:05:36;11.50;;;9.85;;
40290;SDS011;26000;48.304;13.626;2022-10-16T04:08:02;14.80;;;10.00;;
40290;SDS011;26000;48.304;13.626;2022-10-16T04:10:28;11.27;;;10.07;;
40290;SDS011;26000;48.304;13.626;2022-10-16T04:12:53;11.82;;;9.50;;
40290;SDS011;26000;48.304;13.626;2022-10-16T04:15:20;10.85;;;9.68;;
40290;SDS011;26000;48.304;13.626;2022-10-16T04:17:47;12.48;;;9.65;;
40290;SDS011;26000;48.304;13.626;2022-10-16T04:20:12;26.55;;;10.48;;
40290;SDS011;26000;48.304;13.626;2022-10-16T04:22:38;36.45;;;11.07;;
40290;SDS011;26000;48.304;13.626;2022-10-16T04:25:04;17.20;;;9.80;;
40290;SDS011;26000;48.304;13.626;2022-10-16T04:27:30;13.95;;;11.00;;
40290;SDS011;26000;48.304;13.626;2022-10-16T04:29:56;14.65;;;10.85;;
40290;SDS011;26000;48.304;13.626;2022-10-16T04:32:23;11.90;;;10.40;;
40290;SDS011;26000;48.304;13.626;2022-10-16T04:34:48;13.73;;;11.60;;
40290;SDS011;26000;48.304;13.626;2022-10-16T04:37:14;14.32;;;10.52;;
40290;SDS011;26000;48.304;13.626;2022-10-16T04:39:39;17.88;;;12.02;;
40290;SDS011;26000;48.304;13.626;2022-10-16T04:42:05;17.05;;;11.52;;
40290;SDS011;26000;48.304;13.626;2022-10-16T04:44:30;12.80;;;10.57;;
40290;SDS011;26000;48.304;13.626;2022-10-16T04:46:56;12.98;;;11.05;;
40290;SDS011;26000;48.304;13.626;2022-10-16T04:49:22;14.98;;;11.60;;
40290;SDS011;26000;48.304;13.626;2022-10-16T04:51:47;15.52;;;11.55;;
40290;SDS011;26000;48.304;13.626;2022-10-16T04:54:13;13.75;;;11.13;;
40290;SDS011;26000;48.304;13.626;2022-10-16T04:56:38;13.15;;;10.15;;
40290;SDS011;26000;48.304;13.626;2022-10-16T04:59:15;12.45;;;10.45;;
40290;SDS011;26000;48.304;13.626;2022-10-16T05:01:42;15.13;;;10.10;;
40290;SDS011;26000;48.304;13.626;2022-10-16T05:04:08;12.50;;;10.43;;
40290;SDS011;26000;48.304;13.626;2022-10-16T05:06:34;10.82;;;9.60;;
40290;SDS011;26000;48.304;13.626;2022-10-16T05:09:00;10.95;;;9.57;;
40290;SDS011;26000;48.304;13.626;2022-10-16T05:11:25;10.27;;;8.73;;
40290;SDS011;26000;48.304;13.626;2022-10-16T05:13:51;9.88;;;8.85;;
40290;SDS011;26000;48.304;13.626;2022-10-16T05:16:17;11.50;;;8.90;;
40290;SDS011;26000;48.304;13.626;2022-10-16T05:18:42;9.93;;;8.65;;
40290;SDS011;26000;48.304;13.626;2022-10-16T05:21:08;9.63;;;8.63;;
40290;SDS011;26000;48.304;13.626;2022-10-16T05:23:34;16.95;;;9.25;;
40290;SDS011;26000;48.304;13.626;2022-10-16T05:25:59;12.85;;;8.63;;
40290;SDS011;26000;48.304;13.626;2022-10-16T05:28:26;20.40;;;8.48;;
40290;SDS011;26000;48.304;13.626;2022-10-16T05:30:53;32.08;;;8.93;;
40290;SDS011;26000;48.304;13.626;2022-10-16T05:33:20;13.85;;;8.30;;
40290;SDS011;26000;48.304;13.626;2022-10-16T05:35:46;23.73;;;9.35;;
40290;SDS011;26000;48.304;13.626;2022-10-16T05:38:12;14.27;;;9.55;;
40290;SDS011;26000;48.304;13.626;2022-10-16T05:40:38;17.58;;;10.15;;
40290;SDS011;26000;48.304;13.626;2022-10-16T05:43:04;20.27;;;9.95;;
40290;SDS011;26000;48.304;13.626;2022-10-16T05:45:30;12.30;;;9.45;;
40290;SDS011;26000;48.304;13.626;2022-10-16T05:47:55;12.32;;;8.88;;
40290;SDS011;26000;48.304;13.626;2022-10-16T05:50:21;13.35;;;10.30;;
40290;SDS011;26000;48.304;13.626;2022-10-16T05:52:47;29.60;;;10.55;;
40290;SDS011;26000;48.304;13.626;2022-10-16T05:55:12;18.52;;;10.80;;
40290;SDS011;26000;48.304;13.626;2022-10-16T05:57:38;41.00;;;11.30;;
40290;SDS011;26000;48.304;13.626;2022-10-16T06:00:04;14.20;;;11.68;;
40290;SDS011;26000;48.304;13.626;2022-10-16T06:02:30;13.15;;;10.98;;
40290;SDS011;26000;48.304;13.626;2022-10-16T06:04:55;12.45;;;10.82;;
40290;SDS011;26000;48.304;13.626;2022-10-16T06:07:21;20.77;;;9.85;;
40290;SDS011;26000;48.304;13.626;2022-10-16T06:09:51;11.30;;;9.23;;
40290;SDS011;26000;48.304;13.626;2022-10-16T06:12:17;12.35;;;9.63;;
40290;SDS011;26000;48.304;13.626;2022-10-16T06:14:44;30.73;;;9.20;;
40290;SDS011;26000;48.304;13.626;2022-10-16T06:17:12;9.98;;;8.75;;
40290;SDS011;26000;48.304;13.626;2022-10-16T06:19:39;11.18;;;8.55;;
40290;SDS011;26000;48.304;13.626;2022-10-16T06:22:05;22.00;;;9.50;;
40290;SDS011;26000;48.304;13.626;2022-10-16T06:24:31;22.48;;;10.18;;
40290;SDS011;26000;48.304;13.626;2022-10-16T06:26:56;12.48;;;9.43;;
40290;SDS011;26000;48.304;13.626;2022-10-16T06:29:22;15.50;;;9.20;;
40290;SDS011;26000;48.304;13.626;2022-10-16T06:31:47;17.77;;;10.57;;
40290;SDS011;26000;48.304;13.626;2022-10-16T06:34:13;18.27;;;9.07;;
40290;SDS011;26000;48.304;13.626;2022-10-16T06:36:39;19.88;;;9.77;;
40290;SDS011;26000;48.304;13.626;2022-10-16T06:39:06;12.30;;;9.98;;
40290;SDS011;26000;48.304;13.626;2022-10-16T06:41:32;13.15;;;10.73;;
40290;SDS011;26000;48.304;13.626;2022-10-16T06:43:59;15.15;;;10.43;;
40290;SDS011;26000;48.304;13.626;2022-10-16T06:46:25;10.32;;;9.07;;
40290;SDS011;26000;48.304;13.626;2022-10-16T06:48:52;23.10;;;8.32;;
40290;SDS011;26000;48.304;13.626;2022-10-16T06:51:21;20.30;;;8.35;;
40290;SDS011;26000;48.304;13.626;2022-10-16T06:53:49;10.13;;;8.40;;
40290;SDS011;26000;48.304;13.626;2022-10-16T06:56:24;9.02;;;7.47;;
40290;SDS011;26000;48.304;13.626;2022-10-16T06:58:51;13.07;;;8.52;;
40290;SDS011;26000;48.304;13.626;2022-10-16T07:01:18;13.23;;;8.18;;
40290;SDS011;26000;48.304;13.626;2022-10-16T07:03:46;12.30;;;8.68;;
40290;SDS011;26000;48.304;13.626;2022-10-16T07:06:13;12.25;;;9.10;;
40290;SDS011;26000;48.304;13.626;2022-10-16T07:08:42;14.15;;;9.52;;
40290;SDS011;26000;48.304;13.626;2022-10-16T07:11:10;11.80;;;8.65;;
40290;SDS011;26000;48.304;13.626;2022-10-16T07:13:43;11.15;;;8.85;;
40290;SDS011;26000;48.304;13.626;2022-10-16T07:16:13;13.73;;;9.60;;
40290;SDS011;26000;48.304;13.626;2022-10-16T07:18:44;10.70;;;8.18;;
40290;SDS011;26000;48.304;13.626;2022-10-16T07:21:15;9.27;;;7.93;;
40290;SDS011;26000;48.304;13.626;2022-10-16T07:23:44;9.60;;;7.72;;
40290;SDS011;26000;48.304;13.626;2022-10-16T07:26:10;10.63;;;8.57;;
40290;SDS011;26000;48.304;13.626;2022-10-16T07:28:36;11.30;;;8.23;;
40290;SDS011;26000;48.304;13.626;2022-10-16T07:31:03;16.98;;;10.25;;
40290;SDS011;26000;48.304;13.626;2022-10-16T07:33:33;9.38;;;8.38;;
40290;SDS011;26000;48.304;13.626;2022-10-16T07:35:59;11.80;;;9.50;;
40290;SDS011;26000;48.304;13.626;2022-10-16T07:38:25;15.73;;;10.82;;
40290;SDS011;26000;48.304;13.626;2022-10-16T07:40:57;14.60;;;10.35;;
40290;SDS011;26000;48.304;13.626;2022-10-16T07:43:24;11.40;;;9.70;;
40290;SDS011;26000;48.304;13.626;2022-10-16T07:45:51;10.98;;;9.30;;
40290;SDS011;26000;48.304;13.626;2022-10-16T07:48:17;11.52;;;9.80;;
40290;SDS011;26000;48.304;13.626;2022-10-16T07:50:44;8.95;;;7.80;;
40290;SDS011;26000;48.304;13.626;2022-10-16T07:53:10;8.32;;;7.50;;
40290;SDS011;26000;48.304;13.626;2022-10-16T07:55:36;11.27;;;7.10;;
40290;SDS011;26000;48.304;13.626;2022-10-16T07:58:02;7.53;;;6.70;;
40290;SDS011;26000;48.304;13.626;2022-10-16T08:00:27;7.45;;;5.70;;
40290;SDS011;26000;48.304;13.626;2022-10-16T08:02:53;8.05;;;6.70;;
40290;SDS011;26000;48.304;13.626;2022-10-16T08:05:19;6.47;;;5.88;;
40290;SDS011;26000;48.304;13.626;2022-10-16T08:07:48;6.28;;;5.65;;
40290;SDS011;26000;48.304;13.626;2022-10-16T08:10:15;7.50;;;6.20;;
40290;SDS011;26000;48.304;13.626;2022-10-16T08:12:43;6.22;;;5.63;;
40290;SDS011;26000;48.304;13.626;2022-10-16T08:15:09;7.80;;;5.90;;
40290;SDS011;26000;48.304;13.626;2022-10-16T08:17:35;6.22;;;5.63;;
40290;SDS011;26000;48.304;13.626;2022-10-16T08:20:01;6.72;;;6.03;;
40290;SDS011;26000;48.304;13.626;2022-10-16T08:22:26;8.88;;;6.43;;
40290;SDS011;26000;48.304;13.626;2022-10-16T08:24:52;9.57;;;7.55;;
40290;SDS011;26000;48.304;13.626;2022-10-16T08:27:18;12.32;;;9.07;;
40290;SDS011;26000;48.304;13.626;2022-10-16T08:29:43;17.35;;;10.15;;
40290;SDS011;26000;48.304;13.626;2022-10-16T08:32:09;11.10;;;9.93;;
40290;SDS011;26000;48.304;13.626;2022-10-16T08:34:34;14.25;;;9.60;;
40290;SDS011;26000;48.304;13.626;2022-10-16T08:37:00;10.30;;;8.70;;
40290;SDS011;26000;48.304;13.626;2022-10-16T08:39:25;10.93;;;8.35;;
40290;SDS011;26000;48.304;13.626;2022-10-16T08:45:02;9.50;;;6.78;;
40290;SDS011;26000;48.304;13.626;2022-10-16T08:47:53;6.97;;;6.00;;
40290;SDS011;26000;48.304;13.626;2022-10-16T08:50:39;7.90;;;6.18;;
40290;SDS011;26000;48.304;13.626;2022-10-16T08:53:05;7.25;;;5.80;;
40290;SDS011;26000;48.304;13.626;2022-10-16T08:55:43;5.53;;;5.00;;
40290;SDS011;26000;48.304;13.626;2022-10-16T08:58:20;7.70;;;5.07;;
40290;SDS011;26000;48.304;13.626;2022-10-16T09:00:51;9.93;;;5.13;;
40290;SDS011;26000;48.304;13.626;2022-10-16T09:15:02;8.52;;;5.60;;
40290;SDS011;26000;48.304;13.626;2022-10-16T09:22:47;13.82;;;6.13;;
40290;SDS011;26000;48.304;13.626;2022-10-16T09:25:14;11.70;;;6.60;;
40290;SDS011;26000;48.304;13.626;2022-10-16T09:27:42;12.30;;;7.38;;
40290;SDS011;26000;48.304;13.626;2022-10-16T09:30:12;13.40;;;8.10;;
40290;SDS011;26000;48.304;13.626;2022-10-16T09:32:40;10.98;;;8.30;;
40290;SDS011;26000;48.304;13.626;2022-10-16T09:35:13;9.43;;;6.88;;
40290;SDS011;26000;48.304;13.626;2022-10-16T09:37:42;9.77;;;6.55;;
40290;SDS011;26000;48.304;13.626;2022-10-16T09:40:26;6.95;;;5.57;;
40290;SDS011;26000;48.304;13.626;2022-10-16T09:46:21;6.10;;;4.90;;
40290;SDS011;26000;48.304;13.626;2022-10-16T09:49:16;7.20;;;4.77;;
40290;SDS011;26000;48.304;13.626;2022-10-16T09:51:48;7.32;;;4.65;;
40290;SDS011;26000;48.304;13.626;2022-10-16T09:54:16;6.10;;;4.70;;
40290;SDS011;26000;48.304;13.626;2022-10-16T09:56:43;6.47;;;5.50;;
40290;SDS011;26000;48.304;13.626;2022-10-16T09:59:20;8.20;;;6.10;;
40290;SDS011;26000;48.304;13.626;2022-10-16T10:01:55;7.20;;;5.43;;
40290;SDS011;26000;48.304;13.626;2022-10-16T10:04:21;9.05;;;5.05;;
40290;SDS011;26000;48.304;13.626;2022-10-16T10:06:49;6.40;;;4.78;;
40290;SDS011;26000;48.304;13.626;2022-10-16T10:14:37;7.50;;;3.90;;
40290;SDS011;26000;48.304;13.626;2022-10-16T10:19:38;4.80;;;3.08;;
40290;SDS011;26000;48.304;13.626;2022-10-16T10:25:07;4.40;;;3.45;;
40290;SDS011;26000;48.304;13.626;2022-10-16T10:39:20;9.02;;;6.22;;
40290;SDS011;26000;48.304;13.626;2022-10-16T10:44:52;9.63;;;7.10;;
40290;SDS011;26000;48.304;13.626;2022-10-16T10:50:23;7.60;;;5.72;;
40290;SDS011;26000;48.304;13.626;2022-10-16T10:53:02;7.55;;;4.78;;
40290;SDS011;26000;48.304;13.626;2022-10-16T11:11:24;11.95;;;7.03;;
40290;SDS011;26000;48.304;13.626;2022-10-16T11:14:57;6.45;;;5.30;;
40290;SDS011;26000;48.304;13.626;2022-10-16T11:16:58;8.10;;;5.65;;
40290;SDS011;26000;48.304;13.626;2022-10-16T11:19:35;7.90;;;5.45;;
40290;SDS011;26000;48.304;13.626;2022-10-16T11:22:17;8.52;;;5.30;;
40290;SDS011;26000;48.304;13.626;2022-10-16T11:30:29;3.35;;;3.05;;
40290;SDS011;26000;48.304;13.626;2022-10-16T11:44:32;5.80;;;3.20;;
40290;SDS011;26000;48.304;13.626;2022-10-16T11:46:40;5.45;;;3.50;;
40290;SDS011;26000;48.304;13.626;2022-10-16T11:49:14;6.30;;;3.20;;
40290;SDS011;26000;48.304;13.626;2022-10-16T11:51:45;4.13;;;2.92;;
40290;SDS011;26000;48.304;13.626;2022-10-16T11:54:24;5.72;;;3.20;;
40290;SDS011;26000;48.304;13.626;2022-10-16T11:57:00;4.75;;;3.28;;
40290;SDS011;26000;48.304;13.626;2022-10-16T11:59:35;4.78;;;3.45;;
40290;SDS011;26000;48.304;13.626;2022-10-16T12:07:47;4.25;;;3.05;;
40290;SDS011;26000;48.304;13.626;2022-10-16T12:10:42;4.88;;;3.85;;
40290;SDS011;26000;48.304;13.626;2022-10-16T12:16:05;4.20;;;3.20;;
40290;SDS011;26000;48.304;13.626;2022-10-16T12:18:37;5.10;;;2.70;;
40290;SDS011;26000;48.304;13.626;2022-10-16T12:21:07;8.32;;;2.83;;
40290;SDS011;26000;48.304;13.626;2022-10-16T12:23:36;4.72;;;2.88;;
40290;SDS011;26000;48.304;13.626;2022-10-16T12:26:04;4.47;;;3.50;;
40290;SDS011;26000;48.304;13.626;2022-10-16T12:28:31;4.07;;;2.78;;
40290;SDS011;26000;48.304;13.626;2022-10-16T12:30:58;4.90;;;2.83;;
40290;SDS011;26000;48.304;13.626;2022-10-16T12:33:30;4.75;;;2.90;;
40290;SDS011;26000;48.304;13.626;2022-10-16T12:36:02;5.43;;;3.15;;
40290;SDS011;26000;48.304;13.626;2022-10-16T12:41:26;4.43;;;3.40;;
40290;SDS011;26000;48.304;13.626;2022-10-16T12:44:00;6.40;;;3.63;;
40290;SDS011;26000;48.304;13.626;2022-10-16T12:51:39;6.78;;;4.15;;
40290;SDS011;26000;48.304;13.626;2022-10-16T12:54:13;7.05;;;4.22;;
40290;SDS011;26000;48.304;13.626;2022-10-16T12:59:39;8.60;;;4.43;;
40290;SDS011;26000;48.304;13.626;2022-10-16T13:19:30;4.60;;;3.43;;
40290;SDS011;26000;48.304;13.626;2022-10-16T13:22:11;7.90;;;3.72;;
40290;SDS011;26000;48.304;13.626;2022-10-16T13:25:02;6.05;;;3.45;;
40290;SDS011;26000;48.304;13.626;2022-10-16T13:27:53;4.78;;;4.05;;
40290;SDS011;26000;48.304;13.626;2022-10-16T13:30:20;4.15;;;3.38;;
40290;SDS011;26000;48.304;13.626;2022-10-16T13:32:50;3.78;;;3.17;;
40290;SDS011;26000;48.304;13.626;2022-10-16T13:35:28;7.65;;;4.22;;
40290;SDS011;26000;48.304;13.626;2022-10-16T13:38:08;7.10;;;4.30;;
40290;SDS011;26000;48.304;13.626;2022-10-16T13:40:47;4.07;;;3.67;;
40290;SDS011;26000;48.304;13.626;2022-10-16T13:43:14;5.65;;;3.63;;
40290;SDS011;26000;48.304;13.626;2022-10-16T13:45:52;8.07;;;3.60;;
40290;SDS011;26000;48.304;13.626;2022-10-16T13:48:19;6.75;;;3.50;;
40290;SDS011;26000;48.304;13.626;2022-10-16T13:50:44;11.30;;;3.78;;
40290;SDS011;26000;48.304;13.626;2022-10-16T13:53:13;7.75;;;4.05;;
40290;SDS011;26000;48.304;13.626;2022-10-16T13:55:39;5.22;;;3.67;;
40290;SDS011;26000;48.304;13.626;2022-10-16T13:58:07;4.75;;;3.63;;
40290;SDS011;26000;48.304;13.626;2022-10-16T14:00:36;4.13;;;3.25;;
40290;SDS011;26000;48.304;13.626;2022-10-16T14:03:03;5.05;;;4.03;;
40290;SDS011;26000;48.304;13.626;2022-10-16T14:05:42;4.93;;;4.15;;
40290;SDS011;26000;48.304;13.626;2022-10-16T14:08:12;8.55;;;3.80;;
40290;SDS011;26000;48.304;13.626;2022-10-16T14:10:38;4.82;;;3.40;;
40290;SDS011;26000;48.304;13.626;2022-10-16T14:13:05;5.63;;;3.58;;
40290;SDS011;26000;48.304;13.626;2022-10-16T14:15:32;3.55;;;2.90;;
40290;SDS011;26000;48.304;13.626;2022-10-16T14:18:00;6.45;;;4.15;;
40290;SDS011;26000;48.304;13.626;2022-10-16T14:20:27;4.22;;;3.28;;
40290;SDS011;26000;48.304;13.626;2022-10-16T14:23:03;5.20;;;3.38;;
40290;SDS011;26000;48.304;13.626;2022-10-16T14:25:43;4.50;;;3.25;;
40290;SDS011;26000;48.304;13.626;2022-10-16T14:30:52;3.92;;;2.83;;
40290;SDS011;26000;48.304;13.626;2022-10-16T14:36:13;4.70;;;3.05;;
40290;SDS011;26000;48.304;13.626;2022-10-16T14:39:17;5.65;;;2.80;;
40290;SDS011;26000;48.304;13.626;2022-10-16T14:41:47;8.80;;;3.53;;
40290;SDS011;26000;48.304;13.626;2022-10-16T14:44:14;7.65;;;3.95;;
40290;SDS011;26000;48.304;13.626;2022-10-16T14:46:42;5.57;;;3.72;;
40290;SDS011;26000;48.304;13.626;2022-10-16T14:51:35;5.55;;;3.95;;
40290;SDS011;26000;48.304;13.626;2022-10-16T14:54:01;5.43;;;3.80;;
40290;SDS011;26000;48.304;13.626;2022-10-16T14:56:34;5.88;;;3.63;;
40290;SDS011;26000;48.304;13.626;2022-10-16T14:59:14;7.47;;;4.10;;
40290;SDS011;26000;48.304;13.626;2022-10-16T15:01:44;7.70;;;3.95;;
40290;SDS011;26000;48.304;13.626;2022-10-16T15:04:10;5.65;;;3.28;;
40290;SDS011;26000;48.304;13.626;2022-10-16T15:06:37;3.88;;;2.88;;
40290;SDS011;26000;48.304;13.626;2022-10-16T15:09:03;7.43;;;2.60;;
40290;SDS011;26000;48.304;13.626;2022-10-16T15:11:29;4.30;;;2.47;;
40290;SDS011;26000;48.304;13.626;2022-10-16T15:13:57;10.52;;;1.92;;
40290;SDS011;26000;48.304;13.626;2022-10-16T15:16:23;3.67;;;1.98;;
40290;SDS011;26000;48.304;13.626;2022-10-16T15:18:48;2.53;;;2.10;;
40290;SDS011;26000;48.304;13.626;2022-10-16T15:21:20;2.22;;;1.73;;
40290;SDS011;26000;48.304;13.626;2022-10-16T15:23:52;2.42;;;1.88;;
40290;SDS011;26000;48.304;13.626;2022-10-16T15:26:17;4.43;;;2.05;;
40290;SDS011;26000;48.304;13.626;2022-10-16T15:28:43;4.75;;;1.75;;
40290;SDS011;26000;48.304;13.626;2022-10-16T15:31:09;3.00;;;2.13;;
40290;SDS011;26000;48.304;13.626;2022-10-16T15:33:34;3.97;;;2.20;;
40290;SDS011;26000;48.304;13.626;2022-10-16T15:36:00;3.72;;;2.20;;
40290;SDS011;26000;48.304;13.626;2022-10-16T15:38:27;2.63;;;2.28;;
40290;SDS011;26000;48.304;13.626;2022-10-16T15:40:54;5.88;;;2.80;;
40290;SDS011;26000;48.304;13.626;2022-10-16T15:43:20;4.10;;;3.22;;
40290;SDS011;26000;48.304;13.626;2022-10-16T15:46:03;4.53;;;2.63;;
40290;SDS011;26000;48.304;13.626;2022-10-16T15:48:31;4.57;;;2.95;;
40290;SDS011;26000;48.304;13.626;2022-10-16T15:50:57;7.35;;;3.20;;
40290;SDS011;26000;48.304;13.626;2022-10-16T15:53:24;3.08;;;2.50;;
40290;SDS011;26000;48.304;13.626;2022-10-16T15:55:49;5.35;;;2.90;;
40290;SDS011;26000;48.304;13.626;2022-10-16T15:58:15;3.97;;;2.80;;
40290;SDS011;26000;48.304;13.626;2022-10-16T16:00:41;3.47;;;2.63;;
40290;SDS011;26000;48.304;13.626;2022-10-16T16:03:06;3.97;;;3.28;;
40290;SDS011;26000;48.304;13.626;2022-10-16T16:05:32;8.95;;;3.95;;
40290;SDS011;26000;48.304;13.626;2022-10-16T16:07:58;11.52;;;5.00;;
40290;SDS011;26000;48.304;13.626;2022-10-16T16:10:23;9.70;;;4.57;;
40290;SDS011;26000;48.304;13.626;2022-10-16T16:12:49;7.72;;;3.80;;
40290;SDS011;26000;48.304;13.626;2022-10-16T16:15:21;9.75;;;4.55;;
40290;SDS011;26000;48.304;13.626;2022-10-16T16:17:47;15.98;;;6.18;;
40290;SDS011;26000;48.304;13.626;2022-10-16T16:20:13;13.32;;;5.30;;
40290;SDS011;26000;48.304;13.626;2022-10-16T16:22:39;14.45;;;4.90;;
40290;SDS011;26000;48.304;13.626;2022-10-16T16:25:05;11.63;;;5.40;;
40290;SDS011;26000;48.304;13.626;2022-10-16T16:27:31;9.10;;;4.88;;
40290;SDS011;26000;48.304;13.626;2022-10-16T16:29:58;9.80;;;5.10;;
40290;SDS011;26000;48.304;13.626;2022-10-16T16:32:24;15.07;;;5.13;;
40290;SDS011;26000;48.304;13.626;2022-10-16T16:34:50;13.60;;;4.80;;
40290;SDS011;26000;48.304;13.626;2022-10-16T16:37:16;6.80;;;4.45;;
40290;SDS011;26000;48.304;13.626;2022-10-16T16:39:41;9.00;;;4.13;;
40290;SDS011;26000;48.304;13.626;2022-10-16T16:42:07;6.13;;;3.28;;
40290;SDS011;26000;48.304;13.626;2022-10-16T16:44:33;11.25;;;4.95;;
40290;SDS011;26000;48.304;13.626;2022-10-16T16:47:01;5.93;;;4.70;;
40290;SDS011;26000;48.304;13.626;2022-10-16T16:49:27;7.53;;;4.93;;
40290;SDS011;26000;48.304;13.626;2022-10-16T16:51:53;6.80;;;4.35;;
40290;SDS011;26000;48.304;13.626;2022-10-16T16:54:19;7.57;;;4.75;;
40290;SDS011;26000;48.304;13.626;2022-10-16T16:56:45;10.73;;;8.00;;